• Join FlightAware (Why Join?)
  • Login
  • US Flag 
10:25AM EST


 

Airport Tracker/Info


-or-


 

Live Flight TrackerFlight Track Log ✈ UPS32 ✈ 28-Apr-2013 ✈ KSDF - PHNL

Flight Track Log - Related Links

Times and Time Zones

All times are in EDT time to prevent confusion due to time zone crossing. See the UPS32 flight status page for this flight to view local times or setup timezone preferences in your user account.

Time Position Orientation Groundspeed Altitude Reporting Facility
EDT Latitude Longitude Course Direction KTS MPH feet Rate Location/Type
05:50AM 38.1670 -85.7420 167° South 177 204 500  Level FlightAware
05:51AM 38.1360 -85.7470 187° South 170 196 2,400 2,280 Climbing FlightAware
05:51AM 38.1290 -85.7600 236° Southwest 197 227 2,600 780 Climbing FlightAware
05:51AM 38.1210 -85.7760 238° Southwest 222 255 2,800 1,020 Climbing FlightAware
05:51AM 38.1080 -85.8050 240° Southwest 254 292 3,300 2,280 Climbing FlightAware
05:52AM 38.0910 -85.8450 242° Southwest 251 289 4,900 3,000 Climbing FlightAware
05:52AM 38.0780 -85.8810 245° Southwest 260 299 6,100 2,700 Climbing FlightAware
05:53AM 38.0770 -85.9270 268° West 268 308 7,400 2,700 Climbing FlightAware
05:53AM 38.0770 -85.9750 270° West 270 311 8,800 2,580 Climbing FlightAware
05:54AM 38.0780 -86.0140 272° West 279 321 9,800 1,440 Climbing FlightAware
05:55AM 38.0880 -86.0930 279° West 330 380 10,500 1,260 Climbing FlightAware
05:55AM 38.1000 -86.1680 282° West 353 406 11,600 1,380 Climbing FlightAware
05:56AM 38.1150 -86.2580 282° West 388 447 12,400 1,620 Climbing FlightAware
05:57AM 38.1290 -86.3510 281° West 398 458 13,800 1,860 Climbing FlightAware
05:57AM 38.1420 -86.4540 279° West 416 479 15,100 1,800 Climbing FlightAware
05:58AM 38.1540 -86.5370 280° West 422 486 16,200 1,800 Climbing FlightAware
05:59AM 38.1720 -86.6630 280° West 435 501 17,700 1,680 Climbing FlightAware
05:59AM 38.1860 -86.7600 280° West 441 507 18,800 1,680 Climbing FlightAware
06:00AM 38.2030 -86.8810 280° West 450 518 20,100 1,680 Climbing FlightAware
06:01AM 38.2180 -86.9860 280° West 454 522 21,200 1,440 Climbing FlightAware
06:02AM 38.2350 -87.1050 280° West 463 533 22,200 1,200 Climbing FlightAware
06:02AM 38.2500 -87.2170 280° West 475 547 22,900 1,200 Climbing FlightAware
06:03AM 38.2660 -87.3280 280° West 481 554 23,800 1,320 Climbing FlightAware
06:04AM 38.2820 -87.4480 280° West 484 557 24,800 1,440 Climbing FlightAware
06:04AM 38.2980 -87.5630 280° West 482 555 25,900 1,740 Climbing FlightAware
06:05AM 38.3140 -87.6880 279° West 475 547 27,300 1,620 Climbing FlightAware
06:06AM 38.3290 -87.7990 280° West 477 549 28,200 1,500 Climbing FlightAware
06:06AM 38.3440 -87.9090 280° West 471 542 29,300 1,260 Climbing FlightAware
06:07AM 38.3600 -88.0290 280° West 470 541 30,000 480 Climbing FlightAware
06:08AM 38.3740 -88.1380 279° West 470 541 30,000  Level FlightAware
06:09AM 38.3890 -88.2580 279° West 472 543 30,000  Level FlightAware
06:09AM 38.4040 -88.3740 279° West 471 542 30,000  Level FlightAware
06:10AM 38.4180 -88.4830 279° West 471 542 30,000  Level FlightAware
06:11AM 38.4330 -88.6040 279° West 474 545 30,000  Level FlightAware
06:11AM 38.4480 -88.7170 280° West 473 544 30,000  Level FlightAware
06:12AM 38.4630 -88.8360 279° West 472 543 30,000  Level FlightAware
06:13AM 38.4770 -88.9550 279° West 473 544 30,000  Level FlightAware
06:13AM 38.4900 -89.0620 279° West 473 544 30,000  Level FlightAware
06:14AM 38.5050 -89.1840 279° West 474 545 30,000  Level FlightAware
06:15AM 38.5180 -89.2920 279° West 475 547 30,000  Level FlightAware
06:15AM 38.5310 -89.4050 278° West 475 547 30,000  Level FlightAware
06:16AM 38.5460 -89.5330 279° West 475 547 30,000  Level FlightAware
06:17AM 38.5590 -89.6440 279° West 475 547 30,000 540 Level FlightAware
06:18AM 38.5740 -89.7710 279° West 475 547 30,800 1,020 Climbing FlightAware
06:18AM 38.5860 -89.8760 278° West 475 547 31,500 900 Climbing FlightAware
06:19AM 38.5990 -89.9880 278° West 476 548 32,000 300 Climbing FlightAware
06:20AM 38.6130 -90.1130 278° West 478 550 32,000  Level FlightAware
06:20AM 38.6260 -90.2280 278° West 482 555 32,000  Level FlightAware
06:21AM 38.6400 -90.3550 278° West 482 555 32,000  Level FlightAware
06:22AM 38.6520 -90.4680 278° West 483 556 32,000  Level FlightAware
06:22AM 38.6650 -90.5810 278° West 484 557 32,000  Level FlightAware
06:23AM 38.6780 -90.7060 278° West 484 557 32,000  Level FlightAware
06:24AM 38.6900 -90.8200 278° West 483 556 32,000  Level FlightAware
06:25AM 38.7040 -90.9520 278° West 480 552 32,000  Level FlightAware
06:25AM 38.7150 -91.0620 277° West 479 551 32,000  Level FlightAware
06:26AM 38.7270 -91.1740 278° West 478 550 32,000  Level FlightAware
06:27AM 38.7380 -91.2870 277° West 480 552 32,000  Level FlightAware
06:27AM 38.7480 -91.3890 277° West 480 552 32,000  Level FlightAware
06:28AM 38.7600 -91.5090 277° West 480 552 32,000  Level FlightAware
06:29AM 38.7690 -91.6050 277° West 480 552 32,000  Level FlightAware
06:29AM 38.7780 -91.7010 277° West 480 552 32,000  Level FlightAware
06:30AM 38.7870 -91.7980 277° West 480 552 32,000  Level FlightAware
06:31AM 38.7970 -91.8940 278° West 480 552 32,000  Level FlightAware
06:32AM 38.8080 -92.0140 277° West 480 552 32,000  Level FlightAware
06:32AM 38.8170 -92.1100 277° West 480 552 32,000  Level FlightAware
06:33AM 38.8270 -92.2060 278° West 480 552 32,000  Level FlightAware
06:34AM 38.8360 -92.3020 277° West 480 552 32,000  Level FlightAware
06:34AM 38.8450 -92.3990 277° West 480 552 32,000  Level FlightAware
06:35AM 38.8560 -92.5190 277° West 480 552 32,000  Level FlightAware
06:36AM 38.8880 -92.8600 277° West 483 556 32,000  Level FlightAware
06:37AM 38.8990 -92.9970 276° West 482 555 32,000  Level FlightAware
06:37AM 38.9090 -93.1080 277° West 482 555 32,000  Level FlightAware
06:38AM 38.9190 -93.2240 276° West 483 556 32,000  Level FlightAware
06:39AM 38.9300 -93.3500 276° West 485 558 32,000  Level FlightAware
06:39AM 38.9380 -93.4500 276° West 485 558 32,000  Level FlightAware
06:40AM 38.9500 -93.6050 276° West 487 560 32,000  Level FlightAware
06:41AM 38.9600 -93.7210 276° West 487 560 32,000  Level FlightAware
06:42AM 38.9710 -93.8530 276° West 487 560 32,000 60 Level FlightAware
06:42AM 38.9800 -93.9680 276° West 486 559 32,100  Climbing FlightAware
06:43AM 38.9890 -94.0940 275° West 483 556 32,000 -120 Descending FlightAware
06:44AM 38.9980 -94.2080 276° West 480 552 32,000  Level FlightAware
06:44AM 39.0080 -94.3360 276° West 480 552 32,000  Level FlightAware
06:45AM 39.0160 -94.4550 275° West 481 554 32,000  Level FlightAware
06:46AM 39.0260 -94.5770 276° West 484 557 32,000  Level FlightAware
06:46AM 39.0340 -94.6920 275° West 488 562 32,000  Level FlightAware
06:47AM 39.0430 -94.8230 275° West 490 564 32,000  Level FlightAware
06:48AM 39.0520 -94.9420 276° West 492 566 32,000  Level FlightAware
06:49AM 39.0600 -95.0560 275° West 492 566 32,000  Level FlightAware
06:49AM 39.0690 -95.1900 275° West 493 567 32,000  Level FlightAware
06:50AM 39.0760 -95.3070 274° West 493 567 32,000  Level FlightAware
06:51AM 39.0600 -95.0640 95° East 493 567 32,000  Level FlightAware
06:51AM 39.0670 -95.1690 275° West 494 568 32,000  Level FlightAware
06:52AM 39.0740 -95.2750 275° West 494 568 32,000  Level FlightAware
06:53AM 39.0810 -95.3740 275° West 493 567 32,000  Level FlightAware
06:53AM 39.0850 -95.4380 275° West 493 567 32,000  Level FlightAware
06:54AM 39.0900 -95.5200 275° West 492 566 32,000  Level FlightAware
06:55AM 39.0960 -95.6100 275° West 491 565 32,000  Level FlightAware
06:55AM 39.1010 -95.6830 275° West 490 564 32,000  Level FlightAware
06:56AM 39.1050 -95.7430 275° West 490 564 32,000  Level FlightAware
06:57AM 39.1090 -95.8100 274° West 488 562 32,000  Level FlightAware
06:58AM 39.1160 -95.9200 275° West 488 562 32,000  Level FlightAware
06:58AM 39.1240 -96.0590 274° West 488 562 32,000 -120 Level FlightAware
06:59AM 39.1340 -96.2330 274° West 488 562 31,900  Descending FlightAware
07:00AM 39.1450 -96.4150 275° West 488 562 32,000 60 Climbing FlightAware
07:01AM 39.1510 -96.5330 274° West 488 562 32,000  Level FlightAware
07:01AM 39.1560 -96.6320 274° West 488 562 32,000  Level FlightAware
07:02AM 39.1630 -96.7560 274° West 488 562 32,000  Level FlightAware
07:03AM 39.1680 -96.8540 274° West 488 562 32,000  Level FlightAware
07:03AM 39.1740 -96.9530 275° West 488 562 32,000  Level FlightAware
07:04AM 39.1790 -97.0520 274° West 488 562 32,000  Level FlightAware
07:05AM 39.1840 -97.1510 274° West 488 562 32,000  Level FlightAware
07:06AM 39.1910 -97.2740 274° West 488 562 32,000  Level FlightAware
07:06AM 39.1960 -97.3730 274° West 488 562 32,000  Level FlightAware
07:07AM 39.2020 -97.4720 275° West 488 562 32,000  Level FlightAware
07:08AM 39.2070 -97.5710 274° West 488 562 32,000  Level FlightAware
07:08AM 39.2130 -97.6690 275° West 488 562 32,000  Level FlightAware
07:09AM 39.2190 -97.7930 274° West 488 562 32,000  Level FlightAware
07:10AM 39.2250 -97.8920 275° West 488 562 32,000  Level FlightAware
07:10AM 39.2589 -98.8494 275° West 493 567 32,000  Level Kansas City Center
07:10AM 39.2589 -98.9014 270° West 494 568 32,000  Level Denver Center
07:11AM 39.2656 -99.0697 273° West 493 567 32,000  Level Denver Center
07:12AM 39.2703 -99.2383 272° West 491 565 32,000  Level Denver Center
07:13AM 39.2767 -99.4350 272° West 492 566 32,000  Level Denver Center
07:14AM 39.2814 -99.6036 272° West 492 566 32,000  Level Denver Center
07:15AM 39.2867 -99.7700 272° West 486 559 32,000  Level Denver Center
07:16AM 39.2911 -99.9414 272° West 493 567 32,000  Level Denver Center
07:17AM 39.2964 -100.1386 272° West 493 567 32,000  Level Denver Center
07:18AM 39.3006 -100.3064 272° West 489 563 32,000  Level Denver Center
07:19AM 39.3039 -100.4756 272° West 493 567 32,000  Level Denver Center
07:26AM 39.3231 -101.5660 272° West 489 563 32,000  Level FlightAware ADS-B
07:26AM 39.3241 -101.6560 271° West 489 563 32,000  Level FlightAware ADS-B
07:27AM 39.3251 -101.7430 271° West 488 562 32,000  Level FlightAware ADS-B
07:27AM 39.3261 -101.8340 271° West 488 562 32,000  Level FlightAware ADS-B
07:28AM 39.3273 -101.9700 271° West 487 560 32,000  Level FlightAware ADS-B
07:28AM 39.3280 -102.0600 271° West 486 559 32,000  Level FlightAware ADS-B
07:29AM 39.3290 -102.1880 271° West 485 558 32,000  Level FlightAware ADS-B
07:30AM 39.3296 -102.2770 271° West 484 557 32,000  Level FlightAware ADS-B
07:30AM 39.3301 -102.3640 270° West 484 557 32,000  Level FlightAware ADS-B
07:31AM 39.3307 -102.4530 271° West 484 557 32,000  Level FlightAware ADS-B
07:31AM 39.3311 -102.5420 270° West 483 556 32,000  Level FlightAware ADS-B
07:32AM 39.3314 -102.6290 270° West 483 556 32,000  Level FlightAware ADS-B
07:32AM 39.3316 -102.7180 270° West 484 557 32,000  Level FlightAware ADS-B
07:33AM 39.3318 -102.8080 270° West 485 558 32,000  Level FlightAware ADS-B
07:33AM 39.3320 -102.8980 270° West 485 558 32,000  Level FlightAware ADS-B
07:34AM 39.3321 -102.9840 270° West 485 558 32,000  Level FlightAware ADS-B
07:34AM 39.3320 -103.0740 270° West 485 558 32,000  Level FlightAware ADS-B
07:35AM 39.3319 -103.1610 270° West 486 559 32,000  Level FlightAware ADS-B
07:35AM 39.3317 -103.2480 270° West 486 559 32,000  Level FlightAware ADS-B
07:36AM 39.3315 -103.3370 270° West 487 560 32,000  Level FlightAware ADS-B
07:36AM 39.3313 -103.4250 270° West 487 560 32,000  Level FlightAware ADS-B
07:37AM 39.3310 -103.5150 270° West 488 562 32,000  Level FlightAware ADS-B
07:37AM 39.3306 -103.6020 270° West 488 562 32,000  Level FlightAware ADS-B
07:38AM 39.3300 -103.6920 270° West 489 563 32,000  Level FlightAware ADS-B
07:38AM 39.3295 -103.7830 270° West 490 564 32,000  Level FlightAware ADS-B
07:39AM 39.3289 -103.8700 270° West 490 564 32,000  Level FlightAware ADS-B
07:39AM 39.3282 -103.9610 269° West 490 564 32,000  Level FlightAware ADS-B
07:40AM 39.3274 -104.0490 269° West 490 564 32,000  Level FlightAware ADS-B
07:40AM 39.3266 -104.1360 269° West 490 564 32,000  Level FlightAware ADS-B
07:41AM 39.3258 -104.2270 269° West 489 563 32,000  Level FlightAware ADS-B
07:41AM 39.3248 -104.3170 269° West 489 563 32,000  Level FlightAware ADS-B
07:42AM 39.3237 -104.4080 269° West 489 563 32,000  Level FlightAware ADS-B
07:42AM 39.3225 -104.4950 269° West 489 563 32,000  Level FlightAware ADS-B
07:43AM 39.3215 -104.5830 269° West 488 562 32,000  Level FlightAware ADS-B
07:43AM 39.3203 -104.6700 269° West 488 562 32,000  Level FlightAware ADS-B
07:44AM 39.3190 -104.7600 269° West 488 562 32,000  Level FlightAware ADS-B
07:44AM 39.3176 -104.8470 269° West 488 562 32,000  Level FlightAware ADS-B
07:45AM 39.3162 -104.9380 269° West 488 562 32,000  Level FlightAware ADS-B
07:45AM 39.3146 -105.0280 269° West 488 562 32,000  Level FlightAware ADS-B
07:46AM 39.3130 -105.1150 269° West 488 562 32,000  Level FlightAware ADS-B
07:46AM 39.3114 -105.2050 269° West 488 562 32,000  Level FlightAware ADS-B
07:47AM 39.3097 -105.2950 269° West 486 559 32,000  Level FlightAware ADS-B
07:47AM 39.3078 -105.3850 268° West 486 559 32,000  Level FlightAware ADS-B
07:48AM 39.3060 -105.4750 269° West 487 560 32,000  Level FlightAware ADS-B
07:48AM 39.3040 -105.5650 268° West 488 562 32,000  Level FlightAware ADS-B
07:49AM 39.3020 -105.6520 268° West 489 563 32,000  Level FlightAware ADS-B
07:50AM 39.3001 -105.7420 268° West 487 560 32,000  Level FlightAware ADS-B
07:50AM 39.2979 -105.8290 268° West 486 559 32,000  Level FlightAware ADS-B
07:51AM 39.2957 -105.9190 268° West 486 559 32,000  Level FlightAware ADS-B
07:51AM 39.2938 -106.0060 268° West 484 557 32,000  Level FlightAware ADS-B
07:52AM 39.2913 -106.0950 268° West 484 557 32,000  Level FlightAware ADS-B
07:52AM 39.2888 -106.1850 268° West 483 556 32,000  Level FlightAware ADS-B
07:53AM 39.2863 -106.2710 268° West 484 557 32,000  Level FlightAware ADS-B
07:53AM 39.2840 -106.3580 268° West 485 558 32,000  Level FlightAware ADS-B
07:54AM 39.2814 -106.4440 268° West 485 558 32,000  Level FlightAware ADS-B
07:54AM 39.2788 -106.5340 268° West 485 558 32,000  Level FlightAware ADS-B
07:55AM 39.2762 -106.6210 268° West 485 558 32,000  Level FlightAware ADS-B
07:55AM 39.2734 -106.7100 268° West 485 558 32,000  Level FlightAware ADS-B
07:56AM 39.2704 -106.8000 268° West 486 559 32,000  Level FlightAware ADS-B
07:56AM 39.2670 -106.9040 268° West 486 559 32,000  Level FlightAware ADS-B
07:57AM 39.2640 -106.9910 267° West 487 560 32,000  Level FlightAware ADS-B
07:57AM 39.2609 -107.0810 267° West 487 560 32,000  Level FlightAware ADS-B
07:58AM 39.2578 -107.1710 267° West 487 560 32,000  Level FlightAware ADS-B
07:58AM 39.2547 -107.2580 267° West 488 562 32,000  Level FlightAware ADS-B
07:59AM 39.2520 -107.3390 268° West 487 560 32,000  Level FlightAware
08:00AM 39.2470 -107.4720 267° West 487 560 32,000  Level FlightAware
08:00AM 39.2430 -107.5740 267° West 486 559 32,000  Level FlightAware
08:01AM 39.2380 -107.7040 267° West 485 558 32,000  Level FlightAware
08:02AM 39.2330 -107.8190 267° West 485 558 32,000  Level FlightAware
08:02AM 39.2270 -107.9490 267° West 485 558 32,000  Level FlightAware
08:03AM 39.2220 -108.0790 267° West 485 558 32,000  Level FlightAware
08:04AM 39.2170 -108.1950 267° West 484 557 32,000  Level FlightAware
08:04AM 39.2120 -108.3100 267° West 482 555 32,000  Level FlightAware
08:05AM 39.2050 -108.4390 266° West 482 555 32,000  Level FlightAware
08:06AM 39.2000 -108.5540 267° West 482 555 32,000  Level FlightAware
08:07AM 39.1940 -108.6770 266° West 482 555 32,000  Level FlightAware
08:07AM 39.1880 -108.7920 266° West 483 556 32,000  Level FlightAware
08:08AM 39.1820 -108.9190 267° West 483 556 32,000  Level FlightAware
08:09AM 39.1760 -109.0170 266° West 483 556 32,000  Level FlightAware
08:09AM 39.1710 -109.1150 266° West 483 556 32,000  Level FlightAware
08:10AM 39.1660 -109.2310 267° West 484 557 32,000  Level FlightAware
08:11AM 39.1580 -109.3680 266° West 483 556 32,000  Level FlightAware
08:11AM 39.1520 -109.4830 266° West 482 555 32,000  Level FlightAware
08:12AM 39.1440 -109.6200 266° West 483 556 32,000  Level FlightAware
08:13AM 39.1380 -109.7380 266° West 483 556 32,000  Level FlightAware
08:13AM 39.1320 -109.8350 265° West 483 556 32,000  Level FlightAware
08:14AM 39.1270 -109.9330 266° West 483 556 32,000  Level FlightAware
08:15AM 39.1220 -110.0310 266° West 483 556 32,000  Level FlightAware
08:16AM 39.1150 -110.1530 266° West 483 556 32,000  Level FlightAware
08:16AM 39.1100 -110.2510 266° West 483 556 32,000  Level FlightAware
08:17AM 39.1050 -110.3480 266° West 483 556 32,000  Level FlightAware
08:18AM 39.0990 -110.4460 266° West 483 556 32,000  Level FlightAware
08:18AM 39.0940 -110.5440 266° West 483 556 32,000  Level FlightAware
08:19AM 39.0870 -110.6660 266° West 483 556 32,000  Level FlightAware
08:20AM 39.0820 -110.7630 266° West 483 556 32,000  Level FlightAware
08:20AM 39.0770 -110.8610 266° West 483 556 32,000  Level FlightAware
08:21AM 39.0710 -110.9590 266° West 483 556 32,000  Level FlightAware
08:22AM 39.0660 -111.0560 266° West 483 556 32,000  Level FlightAware
08:22AM 39.0344 -111.3489 266° West 489 563 32,000  Level Salt Lake Center
08:23AM 39.0192 -111.5558 265° West 486 559 32,000  Level Salt Lake Center
08:24AM 39.0064 -111.7261 265° West 483 556 32,000  Level Salt Lake Center
08:25AM 38.9928 -111.8983 264° West 485 558 32,000  Level Salt Lake Center
08:26AM 38.9800 -112.0686 265° West 481 554 32,000  Level Salt Lake Center
08:27AM 38.9664 -112.2383 264° West 481 554 32,000  Level Salt Lake Center
08:28AM 38.9519 -112.4097 264° West 483 556 32,000  Level Salt Lake Center
08:29AM 38.9389 -112.5811 264° West 485 558 32,000  Level Salt Lake Center
08:30AM 38.9242 -112.7511 264° West 483 556 32,000  Level Salt Lake Center
08:31AM 38.9097 -112.9231 264° West 486 559 32,000  Level Salt Lake Center
08:32AM 38.8944 -113.0917 263° West 481 554 32,000  Level Salt Lake Center
08:33AM 38.8794 -113.2639 264° West 485 558 32,000  Level Salt Lake Center
08:34AM 38.8642 -113.4350 264° West 485 558 32,000  Level Salt Lake Center
08:35AM 38.8492 -113.6067 264° West 486 559 32,000  Level Salt Lake Center
08:36AM 38.8331 -113.7775 263° West 486 559 32,000  Level Salt Lake Center
08:37AM 38.8169 -113.9494 263° West 488 562 32,000  Level Salt Lake Center
08:38AM 38.8008 -114.1197 263° West 486 559 32,000  Level Salt Lake Center
08:39AM 38.7847 -114.2914 263° West 487 560 32,000  Level Salt Lake Center
08:40AM 38.7675 -114.4622 263° West 487 560 32,000  Level Salt Lake Center
08:41AM 38.7497 -114.6331 262° West 486 559 32,000  Level Salt Lake Center
08:42AM 38.7331 -114.8033 263° West 484 557 32,000  Level Salt Lake Center
08:43AM 38.7131 -114.9764 262° West 491 565 32,000  Level Salt Lake Center
08:44AM 38.6950 -115.1458 262° West 487 560 32,000  Level Salt Lake Center
08:45AM 38.6772 -115.3150 262° West 485 558 32,000  Level Salt Lake Center
08:46AM 38.6567 -115.5086 262° West 480 552 32,000  Level Salt Lake Center
08:47AM 38.6381 -115.6794 262° West 483 556 32,000  Level Salt Lake Center
08:48AM 38.6197 -115.8494 262° West 484 557 32,000  Level Salt Lake Center
08:49AM 38.5997 -116.0186 261° West 482 555 32,000  Level Salt Lake Center
08:50AM 38.5806 -116.1886 262° West 484 557 32,000  Level Salt Lake Center
08:51AM 38.5694 -116.2908 262° West 484 557 32,000  Level Oakland Center
08:52AM 38.5506 -116.4594 262° West 482 555 32,000  Level Oakland Center
08:52AM 38.5419 -116.5267 261° West 483 556 32,000  Level Salt Lake Center
08:53AM 38.5294 -116.6297 261° West 486 559 32,000  Level Oakland Center
08:54AM 38.5100 -116.7978 262° West 483 556 32,000  Level Oakland Center
08:55AM 38.4894 -116.9669 261° West 485 558 32,000  Level Oakland Center
08:56AM 38.4694 -117.1353 261° West 485 558 32,000  Level Oakland Center
08:56AM 38.4608 -117.2017 261° West 485 558 32,000  Level Salt Lake Center
08:57AM 38.4397 -117.3700 261° West 486 559 32,000  Level Salt Lake Center
08:58AM 38.4272 -117.4714 261° West 486 559 32,000  Level Oakland Center
08:59AM 38.4061 -117.6392 261° West 486 559 32,000  Level Oakland Center
09:00AM 38.3844 -117.8072 261° West 484 557 32,000  Level Oakland Center
09:01AM 38.3625 -117.9750 261° West 482 555 32,000  Level Oakland Center
09:02AM 38.3414 -118.1342 260° West 483 556 32,000  Level Oakland Center
09:03AM 38.3192 -118.3031 261° West 483 556 32,000  Level Oakland Center
09:08AM 38.1880 -119.2580 261° West 484 557 32,000  Level FlightAware
09:09AM 38.1730 -119.3640 260° West 485 558 32,000  Level FlightAware
09:10AM 38.1500 -119.5120 259° West 486 559 32,000  Level FlightAware
09:11AM 38.1260 -119.6320 256° West 486 559 32,000  Level FlightAware
09:11AM 38.1020 -119.7560 256° West 486 559 32,000  Level FlightAware
09:12AM 38.0800 -119.8670 256° West 487 560 32,000  Level FlightAware
09:13AM 38.0590 -119.9780 257° West 487 560 32,000  Level FlightAware
09:14AM 38.0320 -120.1140 256° West 489 563 32,000  Level FlightAware
09:14AM 38.0090 -120.2290 256° West 490 564 32,000  Level FlightAware
09:15AM 37.9850 -120.3510 256° West 490 564 32,000  Level FlightAware
09:16AM 37.9630 -120.4630 256° West 490 564 32,000  Level FlightAware
09:16AM 37.9400 -120.5740 255° West 491 565 32,000  Level FlightAware
09:17AM 37.9150 -120.7000 256° West 492 566 32,000  Level FlightAware
09:18AM 37.8920 -120.8110 255° West 492 566 32,000  Level FlightAware
09:18AM 37.8690 -120.9230 255° West 493 567 32,000  Level FlightAware
09:19AM 37.8470 -121.0320 256° West 493 567 32,000  Level FlightAware
09:20AM 37.8210 -121.1610 256° West 495 570 32,000  Level FlightAware
09:21AM 37.7930 -121.2920 255° West 496 571 32,000  Level FlightAware
09:21AM 37.7700 -121.4050 256° West 497 572 32,000  Level FlightAware
09:22AM 37.7470 -121.5140 255° West 497 572 32,000  Level FlightAware
09:23AM 37.7210 -121.6370 255° West 497 572 32,000  Level FlightAware
09:23AM 37.6960 -121.7520 255° West 498 573 32,000  Level FlightAware
09:24AM 37.6720 -121.8650 255° West 498 573 32,000  Level FlightAware
09:25AM 37.6450 -121.9910 255° West 499 574 32,000  Level FlightAware
09:25AM 37.6220 -122.1010 255° West 499 574 32,000  Level FlightAware
09:26AM 37.5950 -122.2240 255° West 499 574 32,000  Level FlightAware
09:27AM 37.5710 -122.3360 255° West 499 574 32,000  Level FlightAware
09:28AM 37.5420 -122.4650 254° West 499 574 32,000  Level FlightAware
09:28AM 37.5180 -122.5770 255° West 500 575 32,000  Level FlightAware
09:29AM 37.4930 -122.6900 254° West 501 577 32,000  Level FlightAware
09:30AM 37.4640 -122.8180 254° West 501 577 32,000  Level FlightAware
09:30AM 37.4390 -122.9310 254° West 500 575 32,000  Level FlightAware
09:31AM 37.4110 -123.0570 254° West 501 577 32,000  Level FlightAware
09:32AM 37.3850 -123.1690 254° West 501 577 32,000  Level FlightAware
09:32AM 37.3610 -123.2780 255° West 502 578 32,000  Level FlightAware
09:33AM 37.3310 -123.4070 254° West 502 578 32,000  Level FlightAware
09:34AM 37.3100 -123.4990 254° West 502 578 32,000  Level FlightAware
09:35AM 37.2800 -123.6230 253° West 503 579 32,000  Level FlightAware
09:35AM 37.2570 -123.7180 253° West 503 579 32,000  Level FlightAware
09:36AM 37.2250 -123.8670 255° West 504 580 32,000  Level FlightAware
09:37AM 37.2000 -123.9690 253° West 504 580 32,000  Level FlightAware
09:37AM 37.1770 -124.0640 253° West 504 580 32,000  Level FlightAware
09:38AM 37.1480 -124.1830 253° West 504 580 32,000  Level FlightAware
09:39AM 37.1250 -124.2780 253° West 504 580 32,000  Level FlightAware
09:39AM 37.1010 -124.3740 253° West 504 580 32,000  Level FlightAware
09:40AM 37.0780 -124.4690 253° West 504 580 32,000  Level FlightAware
09:41AM 37.0550 -124.5640 253° West 504 580 32,000  Level FlightAware
09:41AM 37.0320 -124.6590 253° West 504 580 32,000  Level FlightAware
09:42AM 37.0030 -124.7770 253° West 504 580 32,000  Level FlightAware
09:43AM 36.9800 -124.8720 253° West 504 580 32,000  Level FlightAware
09:44AM 36.9570 -124.9670 253° West 504 580 32,000  Level FlightAware
09:44AM 36.9330 -125.0620 252° West 504 580 32,000  Level FlightAware
09:45AM 36.9100 -125.1570 253° West 504 580 32,000  Level FlightAware
09:46AM 36.8810 -125.2750 253° West 504 580 32,000 -120 Level FlightAware
09:46AM 36.8175 -125.5614 253° West 506 582 31,900 -120 Descending Oakland Center
09:47AM 36.7758 -125.7289 253° West 506 582 31,900  Level Oakland Center
09:48AM 36.7325 -125.8950 252° West 504 580 31,900  Level Oakland Center
09:49AM 36.6919 -126.0631 253° West 507 583 31,900  Level Oakland Center
09:50AM 36.6406 -126.2625 252° West 507 583 32,000  Climbing Oakland Center
09:51AM 36.5964 -126.4289 252° West 507 583 32,000  Level Oakland Center
09:52AM 36.5628 -126.5625 253° West 507 583 32,000 -60 Level Oakland Center
09:53AM 36.5106 -126.7628 252° West 507 583 31,900  Descending Oakland Center
09:54AM 36.4669 -126.9289 252° West 507 583 32,000 60 Climbing Oakland Center
09:54AM 36.4667 -126.9333 250° West 507 583 32,000  Level Oakland Oceanic (ODAPS)
10:02AM 36.1236 -128.0908 249° West 507 583 32,000  Level FlightAware Transoceanic
10:03AM 36.0736 -128.2553 249° West 507 583 32,000  Level FlightAware Transoceanic
10:04AM 36.0235 -128.4196 249° West 507 583 32,000  Level FlightAware Transoceanic
10:05AM 35.9731 -128.5837 249° West 507 583 32,000  Level FlightAware Transoceanic
10:06AM 35.9225 -128.7476 249° West 507 583 32,000  Level FlightAware Transoceanic
10:06AM 35.9000 -128.8167 249° West 509 586 32,000  Level Oakland Oceanic (ODAPS)
10:07AM 35.8717 -128.9113 249° West 507 583 32,000  Level FlightAware Transoceanic
10:08AM 35.8207 -129.0747 249° West 507 583 32,000  Level FlightAware Transoceanic
10:09AM 35.7694 -129.2380 249° West 507 583 32,000  Level FlightAware Transoceanic
10:10AM 35.7179 -129.4010 249° West 507 583 32,000  Level FlightAware Transoceanic
10:11AM 35.6662 -129.5638 249° West 507 583 32,000  Level FlightAware Transoceanic
10:12AM 35.5952 -129.7833 248° West 509 586 32,000  Level FlightAware Transoceanic
10:13AM 35.5437 -129.9436 248° West 509 586 32,000  Level FlightAware Transoceanic
10:14AM 35.4919 -130.1038 248° West 509 586 32,000  Level FlightAware Transoceanic
10:15AM 35.4399 -130.2638 248° West 509 586 32,000  Level FlightAware Transoceanic
10:16AM 35.3877 -130.4236 248° West 509 586 32,000  Level FlightAware Transoceanic
10:17AM 35.3353 -130.5831 248° West 509 586 32,000  Level FlightAware Transoceanic
10:18AM 35.2827 -130.7425 248° West 509 586 32,000  Level FlightAware Transoceanic
10:19AM 35.2299 -130.9016 248° West 509 586 32,000  Level FlightAware Transoceanic
10:20AM 35.1769 -131.0605 248° West 509 586 32,000  Level FlightAware Transoceanic
10:20AM 35.1667 -131.0833 248° West 513 590 32,000  Level Oakland Oceanic (ODAPS)
10:21AM 35.1237 -131.2193 248° West 509 586 32,000  Level FlightAware Transoceanic
10:22AM 35.0703 -131.3778 248° West 509 586 32,000  Level FlightAware Transoceanic
10:23AM 35.0166 -131.5361 247° West 509 586 32,000  Level FlightAware Transoceanic
10:24AM 34.9628 -131.6942 247° West 509 586 32,000  Level FlightAware Transoceanic
10:25AM 34.9087 -131.8521 247° West 509 586 32,000  Level FlightAware Transoceanic
10:26AM 34.8470 -132.0259 247° West 513 590 32,000  Level FlightAware Transoceanic
10:27AM 34.7930 -132.1823 247° West 513 590 32,000  Level FlightAware Transoceanic
10:28AM 34.7389 -132.3384 247° West 513 590 32,000  Level FlightAware Transoceanic
10:29AM 34.6845 -132.4944 247° West 513 590 32,000  Level FlightAware Transoceanic
10:30AM 34.6299 -132.6502 247° West 513 590 32,000  Level FlightAware Transoceanic
10:31AM 34.5751 -132.8057 247° West 513 590 32,000  Level FlightAware Transoceanic
10:32AM 34.5202 -132.9611 247° West 513 590 32,000  Level FlightAware Transoceanic
10:33AM 34.4650 -133.1162 247° West 513 590 32,000  Level FlightAware Transoceanic
10:34AM 34.4096 -133.2712 247° West 513 590 32,000  Level FlightAware Transoceanic
10:34AM 34.4000 -133.3333 246° West 514 592 32,000  Level Oakland Oceanic (ODAPS)
10:35AM 34.3541 -133.4259 246° West 513 590 32,000  Level FlightAware Transoceanic
10:36AM 34.2983 -133.5804 246° West 513 590 32,000  Level FlightAware Transoceanic
10:37AM 34.2424 -133.7348 246° West 513 590 32,000  Level FlightAware Transoceanic
10:38AM 34.1862 -133.8889 246° West 513 590 32,000  Level FlightAware Transoceanic
10:39AM 34.1299 -134.0428 246° West 513 590 32,000  Level FlightAware Transoceanic
10:40AM 34.0167 -134.3500 246° West 514 592 32,000  Level FlightAware Transoceanic
10:40AM 34.0167 -134.3500 246° West 519 597 32,000  Level Oakland Oceanic (ODAPS)
10:41AM 33.9605 -134.5021 246° West 514 592 32,000  Level FlightAware Transoceanic
10:42AM 33.9041 -134.6540 246° West 514 592 32,000  Level FlightAware Transoceanic
10:43AM 33.8475 -134.8057 246° West 514 592 32,000  Level FlightAware Transoceanic
10:44AM 33.7907 -134.9572 246° West 514 592 32,000  Level FlightAware Transoceanic
10:45AM 33.7338 -135.1086 246° West 514 592 32,000  Level FlightAware Transoceanic
10:46AM 33.6614 -135.2999 245° Southwest 519 597 32,000  Level FlightAware Transoceanic
10:47AM 33.6015 -135.4575 245° Southwest 519 597 32,000  Level FlightAware Transoceanic
10:48AM 33.5413 -135.6148 245° Southwest 519 597 32,000  Level FlightAware Transoceanic
10:49AM 33.4810 -135.7719 245° Southwest 519 597 32,000  Level FlightAware Transoceanic
10:49AM 33.5667 -135.5667 245° Southwest 521 600 32,000  Level Oakland Oceanic (ODAPS)
10:50AM 33.4205 -135.9288 245° Southwest 519 597 32,000  Level FlightAware Transoceanic
10:51AM 33.3598 -136.0855 245° Southwest 519 597 32,000  Level FlightAware Transoceanic
10:52AM 33.2989 -136.2419 245° Southwest 519 597 32,000  Level FlightAware Transoceanic
10:53AM 33.2378 -136.3982 245° Southwest 519 597 32,000  Level FlightAware Transoceanic
10:54AM 33.1765 -136.5542 245° Southwest 519 597 32,000  Level FlightAware Transoceanic
10:55AM 33.1359 -136.6714 245° Southwest 521 600 32,000  Level FlightAware Transoceanic
10:56AM 33.0735 -136.8284 245° Southwest 521 600 32,000  Level FlightAware Transoceanic
10:57AM 33.0110 -136.9851 245° Southwest 521 600 32,000  Level FlightAware Transoceanic
10:58AM 32.9482 -137.1416 244° Southwest 521 600 32,000  Level FlightAware Transoceanic
10:59AM 32.8853 -137.2978 244° Southwest 521 600 32,000  Level FlightAware Transoceanic
11:00AM 32.8222 -137.4539 244° Southwest 521 600 32,000  Level FlightAware Transoceanic
11:01AM 32.7589 -137.6097 244° Southwest 521 600 32,000  Level FlightAware Transoceanic
11:01AM 32.6833 -137.7833 244° Southwest 520 598 32,000  Level Oakland Oceanic (ODAPS)
11:02AM 32.6954 -137.7653 244° Southwest 521 600 32,000  Level FlightAware Transoceanic
11:03AM 32.6317 -137.9207 244° Southwest 521 600 32,000  Level FlightAware Transoceanic
11:04AM 32.5678 -138.0758 244° Southwest 521 600 32,000  Level FlightAware Transoceanic
11:05AM 32.5037 -138.2307 244° Southwest 521 600 32,000  Level FlightAware Transoceanic
11:06AM 32.4395 -138.3855 244° Southwest 521 600 32,000  Level FlightAware Transoceanic
11:07AM 32.3750 -138.5399 244° Southwest 521 600 32,000  Level FlightAware Transoceanic
11:08AM 32.3013 -138.7074 244° Southwest 520 598 32,000  Level FlightAware Transoceanic
11:09AM 32.2370 -138.8607 244° Southwest 520 598 32,000  Level FlightAware Transoceanic
11:10AM 32.1725 -139.0137 243° Southwest 520 598 32,000  Level FlightAware Transoceanic
11:11AM 32.1078 -139.1665 243° Southwest 520 598 32,000  Level FlightAware Transoceanic
11:12AM 32.0430 -139.3191 243° Southwest 520 598 32,000  Level FlightAware Transoceanic
11:13AM 31.9779 -139.4715 243° Southwest 520 598 32,000  Level FlightAware Transoceanic
11:14AM 31.9127 -139.6237 243° Southwest 520 598 32,000  Level FlightAware Transoceanic
11:15AM 31.8473 -139.7756 243° Southwest 520 598 32,000  Level FlightAware Transoceanic
11:15AM 31.7833 -139.9167 243° Southwest 517 595 32,000  Level Oakland Oceanic (ODAPS)
11:16AM 31.7817 -139.9274 243° Southwest 520 598 32,000  Level FlightAware Transoceanic
11:17AM 31.7159 -140.0789 243° Southwest 520 598 32,000  Level FlightAware Transoceanic
11:18AM 31.6500 -140.2302 243° Southwest 520 598 32,000  Level FlightAware Transoceanic
11:19AM 31.5838 -140.3813 243° Southwest 520 598 32,000  Level FlightAware Transoceanic
11:20AM 31.5175 -140.5322 243° Southwest 520 598 32,000  Level FlightAware Transoceanic
11:21AM 31.4510 -140.6828 243° Southwest 520 598 32,000  Level FlightAware Transoceanic
11:22AM 31.3849 -140.8297 243° Southwest 517 595 32,000  Level FlightAware Transoceanic
11:23AM 31.3179 -140.9811 243° Southwest 517 595 32,000  Level FlightAware Transoceanic
11:24AM 31.2507 -141.1324 242° Southwest 517 595 32,000  Level FlightAware Transoceanic
11:24AM 31.1833 -141.2833 242° Southwest 509 586 32,000  Level Oakland Oceanic (ODAPS)
11:25AM 31.1833 -141.2833 242° Southwest 517 595 32,000  Level FlightAware Transoceanic
11:26AM 31.1198 -141.4241 242° Southwest 517 595 32,000  Level FlightAware Transoceanic
11:27AM 31.0561 -141.5647 242° Southwest 517 595 32,000  Level FlightAware Transoceanic
11:28AM 30.9922 -141.7052 242° Southwest 517 595 32,000  Level FlightAware Transoceanic
11:29AM 30.9282 -141.8454 242° Southwest 517 595 32,000  Level FlightAware Transoceanic
11:29AM 30.8500 -142.0000 242° Southwest 509 586 32,000  Level Oakland Oceanic (ODAPS)
11:30AM 30.8640 -141.9855 242° Southwest 517 595 32,000  Level FlightAware Transoceanic
11:31AM 30.7833 -142.1610 242° Southwest 509 586 32,000  Level FlightAware Transoceanic
11:32AM 30.7160 -142.3066 242° Southwest 509 586 32,000  Level FlightAware Transoceanic
11:33AM 30.6486 -142.4519 242° Southwest 509 586 32,000  Level FlightAware Transoceanic
11:34AM 30.5811 -142.5971 242° Southwest 509 586 32,000  Level FlightAware Transoceanic
11:35AM 30.5133 -142.7421 241° Southwest 509 586 32,000  Level FlightAware Transoceanic
11:36AM 30.3882 -142.9951 241° Southwest 509 586 32,000  Level FlightAware Transoceanic
11:37AM 30.3217 -143.1365 241° Southwest 509 586 32,000  Level FlightAware Transoceanic
11:38AM 30.2549 -143.2777 241° Southwest 509 586 32,000  Level FlightAware Transoceanic
11:39AM 30.1880 -143.4187 241° Southwest 509 586 32,000  Level FlightAware Transoceanic
11:40AM 30.1210 -143.5596 241° Southwest 509 586 32,000  Level FlightAware Transoceanic
11:41AM 30.0538 -143.7002 241° Southwest 509 586 32,000  Level FlightAware Transoceanic
11:42AM 29.9865 -143.8406 241° Southwest 509 586 32,000  Level FlightAware Transoceanic
11:43AM 29.9190 -143.9808 241° Southwest 509 586 32,000 1,260 Level FlightAware Transoceanic
11:43AM 29.9000 -144.0333 241° Southwest 512 589 34,000  Climbing Oakland Oceanic (ODAPS)
11:44AM 29.8514 -144.1209 241° Southwest 509 586 32,000 -1,380 Descending FlightAware Transoceanic
11:45AM 29.7836 -144.2608 241° Southwest 509 586 32,000  Level FlightAware Transoceanic
11:46AM 29.7157 -144.4004 241° Southwest 509 586 32,000  Level FlightAware Transoceanic
11:47AM 29.6476 -144.5399 241° Southwest 509 586 32,000  Level FlightAware Transoceanic
11:48AM 29.5794 -144.6792 241° Southwest 509 586 32,000 960 Level FlightAware Transoceanic
11:49AM 29.4812 -144.8890 240° Southwest 512 589 34,000 960 Climbing FlightAware Transoceanic
11:50AM 29.4108 -145.0310 240° Southwest 512 589 34,000  Level FlightAware Transoceanic
11:51AM 29.3403 -145.1727 240° Southwest 512 589 34,000  Level FlightAware Transoceanic
11:52AM 29.2697 -145.3142 240° Southwest 512 589 34,000  Level FlightAware Transoceanic
11:53AM 29.1989 -145.4556 240° Southwest 512 589 34,000  Level FlightAware Transoceanic
11:54AM 29.1280 -145.5967 240° Southwest 512 589 34,000  Level FlightAware Transoceanic
11:55AM 29.0569 -145.7377 240° Southwest 512 589 34,000  Level FlightAware Transoceanic
11:56AM 28.9857 -145.8784 240° Southwest 512 589 34,000  Level FlightAware Transoceanic
11:57AM 28.9143 -146.0190 240° Southwest 512 589 34,000  Level FlightAware Transoceanic
11:57AM 28.9167 -146.0000 240° Southwest 508 585 34,000  Level Oakland Oceanic (ODAPS)
11:58AM 28.8428 -146.1593 240° Southwest 512 589 34,000  Level FlightAware Transoceanic
11:59AM 28.7711 -146.2995 240° Southwest 512 589 34,000  Level FlightAware Transoceanic
12:00PM 28.6993 -146.4395 240° Southwest 512 589 34,000  Level FlightAware Transoceanic
12:01PM 28.6273 -146.5793 240° Southwest 512 589 34,000  Level FlightAware Transoceanic
12:02PM 28.5552 -146.7189 240° Southwest 512 589 34,000  Level FlightAware Transoceanic
12:03PM 28.4844 -146.8475 240° Southwest 508 585 34,000  Level FlightAware Transoceanic
12:04PM 28.4119 -146.9881 240° Southwest 508 585 34,000  Level FlightAware Transoceanic
12:05PM 28.3392 -147.1284 239° Southwest 508 585 34,000  Level FlightAware Transoceanic
12:06PM 28.2663 -147.2686 239° Southwest 508 585 34,000  Level FlightAware Transoceanic
12:07PM 28.1933 -147.4086 239° Southwest 508 585 34,000  Level FlightAware Transoceanic
12:08PM 28.1202 -147.5484 239° Southwest 508 585 34,000  Level FlightAware Transoceanic
12:09PM 28.0470 -147.6880 239° Southwest 508 585 34,000  Level FlightAware Transoceanic
12:10PM 27.9736 -147.8274 239° Southwest 508 585 34,000  Level FlightAware Transoceanic
12:11PM 27.9000 -147.9667 239° Southwest 508 585 34,000  Level FlightAware Transoceanic
12:11PM 27.9333 -147.9000 241° Southwest 514 592 34,000  Level Oakland Oceanic (ODAPS)
12:11PM 27.9000 -147.9667 239° Southwest 492 566 34,000  Level Oakland Oceanic (ODAPS)
12:12PM 27.8321 -148.0937 239° Southwest 508 585 34,000  Level FlightAware Transoceanic
12:13PM 27.7641 -148.2205 239° Southwest 508 585 34,000  Level FlightAware Transoceanic
12:14PM 27.6960 -148.3472 239° Southwest 508 585 34,000  Level FlightAware Transoceanic
12:15PM 27.6278 -148.4738 239° Southwest 508 585 34,000  Level FlightAware Transoceanic
12:16PM 27.5595 -148.6001 239° Southwest 508 585 34,000  Level FlightAware Transoceanic
12:17PM 27.4910 -148.7263 239° Southwest 514 592 34,000  Level FlightAware Transoceanic
12:18PM 27.4653 -148.7736 239° Southwest 492 566 34,000  Level FlightAware Transoceanic
12:19PM 27.3924 -148.9075 238° Southwest 492 566 34,000  Level FlightAware Transoceanic
12:20PM 27.3194 -149.0412 238° Southwest 492 566 34,000  Level FlightAware Transoceanic
12:21PM 27.2462 -149.1747 238° Southwest 492 566 34,000  Level FlightAware Transoceanic
12:22PM 27.1730 -149.3081 238° Southwest 492 566 34,000  Level FlightAware Transoceanic
12:23PM 27.0996 -149.4413 238° Southwest 492 566 34,000  Level FlightAware Transoceanic
12:24PM 27.0260 -149.5742 238° Southwest 492 566 34,000  Level FlightAware Transoceanic
12:25PM 26.9524 -149.7071 238° Southwest 492 566 34,000  Level FlightAware Transoceanic
12:25PM 26.9167 -149.7667 238° Southwest 489 563 34,000  Level Oakland Oceanic (ODAPS)
12:26PM 26.8786 -149.8397 238° Southwest 492 566 34,000  Level FlightAware Transoceanic
12:27PM 26.8047 -149.9722 238° Southwest 492 566 34,000  Level FlightAware Transoceanic
12:28PM 26.7306 -150.1045 238° Southwest 492 566 34,000  Level FlightAware Transoceanic
12:29PM 26.6565 -150.2366 238° Southwest 492 566 34,000  Level FlightAware Transoceanic
12:30PM 26.5822 -150.3686 238° Southwest 492 566 34,000  Level FlightAware Transoceanic
12:31PM 26.4780 -150.5493 238° Southwest 489 563 34,000  Level FlightAware Transoceanic
12:32PM 26.4044 -150.6792 238° Southwest 489 563 34,000  Level FlightAware Transoceanic
12:33PM 26.3308 -150.8089 238° Southwest 489 563 34,000  Level FlightAware Transoceanic
12:34PM 26.2570 -150.9384 238° Southwest 489 563 34,000  Level FlightAware Transoceanic
12:35PM 26.1832 -151.0678 237° Southwest 489 563 34,000  Level FlightAware Transoceanic
12:36PM 26.1092 -151.1970 237° Southwest 489 563 34,000  Level FlightAware Transoceanic
12:37PM 26.0351 -151.3261 237° Southwest 489 563 34,000  Level FlightAware Transoceanic
12:38PM 25.9608 -151.4549 237° Southwest 489 563 34,000  Level FlightAware Transoceanic
12:38PM 25.8833 -151.6000 237° Southwest 490 564 34,000  Level Oakland Oceanic (ODAPS)
12:39PM 25.8865 -151.5836 237° Southwest 489 563 34,000  Level FlightAware Transoceanic
12:40PM 25.8120 -151.7122 237° Southwest 489 563 34,000  Level FlightAware Transoceanic
12:41PM 25.7375 -151.8406 237° Southwest 489 563 34,000  Level FlightAware Transoceanic
12:42PM 25.6628 -151.9688 237° Southwest 489 563 34,000  Level FlightAware Transoceanic
12:43PM 25.5880 -152.0969 237° Southwest 489 563 34,000  Level FlightAware Transoceanic
12:44PM 25.5131 -152.2248 237° Southwest 489 563 34,000  Level FlightAware Transoceanic
12:45PM 25.4358 -152.3642 237° Southwest 490 564 34,000  Level FlightAware Transoceanic
12:46PM 25.3608 -152.4910 237° Southwest 490 564 34,000  Level FlightAware Transoceanic
12:47PM 25.2857 -152.6176 237° Southwest 490 564 34,000  Level FlightAware Transoceanic
12:48PM 25.2105 -152.7441 237° Southwest 490 564 34,000  Level FlightAware Transoceanic
12:49PM 25.1352 -152.8705 237° Southwest 490 564 34,000  Level FlightAware Transoceanic
12:50PM 25.0598 -152.9966 237° Southwest 490 564 34,000  Level FlightAware Transoceanic
12:51PM 24.9843 -153.1227 236° Southwest 490 564 34,000  Level FlightAware Transoceanic
12:52PM 24.9087 -153.2485 236° Southwest 490 564 34,000  Level FlightAware Transoceanic
12:53PM 24.8330 -153.3743 236° Southwest 490 564 34,000  Level FlightAware Transoceanic
12:53PM 24.8000 -153.4167 237° Southwest 492 566 34,000  Level Oakland Oceanic (ODAPS)
12:54PM 24.7572 -153.4998 236° Southwest 490 564 34,000  Level FlightAware Transoceanic
12:55PM 24.6812 -153.6252 236° Southwest 490 564 34,000  Level FlightAware Transoceanic
12:56PM 24.6052 -153.7505 236° Southwest 490 564 34,000  Level FlightAware Transoceanic
12:57PM 24.5290 -153.8756 236° Southwest 490 564 34,000  Level FlightAware Transoceanic
12:58PM 24.4528 -154.0005 236° Southwest 490 564 34,000  Level FlightAware Transoceanic
12:59PM 24.3000 -154.2500 236° Southwest 492 566 34,000  Level FlightAware Transoceanic
12:59PM 24.2667 -154.2667 236° Southwest 470 541 34,000  Level Honolulu Center
01:00PM 24.2307 -154.3627 236° Southwest 492 566 34,000  Level FlightAware Transoceanic
01:01PM 24.1613 -154.4753 236° Southwest 492 566 34,000  Level FlightAware Transoceanic
01:01PM 24.1000 -154.5000 232° Southwest 510 587 34,000  Level Honolulu Center
01:02PM 24.0919 -154.5878 236° Southwest 492 566 34,000  Level FlightAware Transoceanic
01:02PM 24.0000 -154.6000 222° Southwest 500 575 34,000  Level Honolulu Center
01:03PM 24.0224 -154.7002 236° Southwest 492 566 34,000  Level FlightAware Transoceanic
01:03PM 23.9000 -154.7167 227° Southwest 500 575 34,000  Level Honolulu Center
01:04PM 23.9527 -154.8124 236° Southwest 492 566 34,000  Level FlightAware Transoceanic
01:04PM 23.8000 -154.8167 222° Southwest 500 575 34,000  Level Honolulu Center
01:05PM 23.7167 -154.9333 232° Southwest 500 575 34,000  Level Honolulu Center
01:06PM 23.6167 -155.0500 227° Southwest 500 575 34,000  Level Honolulu Center
01:07PM 23.5167 -155.1500 223° Southwest 500 575 34,000  Level Honolulu Center
01:08PM 23.4333 -155.2667 232° Southwest 500 575 34,000  Level Honolulu Center
01:09PM 23.3333 -155.3667 223° Southwest 490 564 34,000  Level Honolulu Center
01:10PM 23.2333 -155.4833 227° Southwest 490 564 34,000  Level Honolulu Center
01:11PM 23.1333 -155.5833 223° Southwest 490 564 34,000  Level Honolulu Center
01:12PM 23.0500 -155.6833 228° Southwest 490 564 34,000  Level Honolulu Center
01:13PM 22.9500 -155.8000 227° Southwest 490 564 34,000  Level Honolulu Center
01:14PM 22.8500 -155.9000 223° Southwest 490 564 34,000  Level Honolulu Center
01:15PM 22.7667 -156.0167 232° Southwest 490 564 34,000  Level Honolulu Center
01:16PM 22.6667 -156.1167 223° Southwest 490 564 34,000  Level Honolulu Center
01:17PM 22.5667 -156.2333 227° Southwest 490 564 34,000  Level Honolulu Center
01:18PM 22.4667 -156.3333 223° Southwest 490 564 34,000 -180 Level Honolulu Center
01:19PM 22.3833 -156.4333 228° Southwest 490 564 33,700 -1,500 Descending Honolulu Center
01:20PM 22.2833 -156.5333 223° Southwest 490 564 31,000 -2,520 Descending Honolulu Center
01:21PM 22.1833 -156.6500 227° Southwest 490 564 28,700 -1,560 Descending Honolulu Center
01:22PM 22.1000 -156.7500 228° Southwest 490 564 27,900 -840 Descending Honolulu Center
01:23PM 22.0167 -156.8500 228° Southwest 490 564 27,100 -780 Descending Honolulu Center
01:24PM 21.9167 -156.9500 223° Southwest 490 564 26,400 -780 Descending Honolulu Center
01:25PM 21.8167 -157.0500 223° Southwest 480 552 25,600 -1,080 Descending Honolulu Center
01:26PM 21.7167 -157.1667 227° Southwest 460 529 24,300 -1,920 Descending Honolulu Center
01:27PM 21.6333 -157.2667 228° Southwest 440 506 21,800 -2,400 Descending Honolulu Center
01:33PM 21.3050 -157.7640 228° Southwest 293 337 7,900 -2,220 Descending FlightAware
01:33PM 21.2880 -157.7920 237° Southwest 293 337 7,900 -780 Level FlightAware
01:33PM 21.2650 -157.8220 231° Southwest 275 316 7,400 -1,080 Descending FlightAware
01:34PM 21.2390 -157.8460 221° Southwest 273 314 7,100 -1,440 Descending FlightAware
01:35PM 21.2060 -157.8810 225° Southwest 267 307 5,900 -2,880 Descending FlightAware
01:35PM 21.1667 -157.9000 225° Southwest 250 288 4,300 -3,000 Descending Honolulu Center
01:36PM 21.1833 -157.9667 285° West 260 299 1,700 -2,580 Descending Honolulu Center